TVS52J EDDK-LOWW
Flight info
| Callsign | TVS52J |
|---|---|
| Flight time | 1h 7m |
| Altitude | 45000 |
| Route | KUMIK1R KUMIK L603 TESGA DCT ESATI DCT BARSU DCT EKSOS DCT LULAR DCT RUDAP DCT BUDEX BUDEX2W |
| Aircraft | C700/M-SBDGHM1RWXY/LB2 |
Departure
| Time | 2026-04-25 20:25 |
|---|---|
| Airport | Cologne Bonn Airport (EDDK) |
Arrival
| Time | 2026-04-25 21:33 |
|---|---|
| Airport | Vienna International Airport (LOWW) |
| Time | Latitude | Longitude | Altitude | Speed | Heading |
|---|---|---|---|---|---|
| 2026-04-25 20:04 | 50.87215 | 7.12447 | 227 ft | 0 kts | 317° |
| 2026-04-25 20:11 | 50.87216 | 7.12442 | 227 ft | 1 kts | 281° |
| 2026-04-25 20:11 | 50.87213 | 7.12433 | 228 ft | 0 kts | 243° |
| 2026-04-25 20:12 | 50.87196 | 7.12409 | 229 ft | 5 kts | 213° |
| 2026-04-25 20:12 | 50.87163 | 7.12387 | 229 ft | 5 kts | 191° |
| 2026-04-25 20:12 | 50.87124 | 7.12398 | 232 ft | 7 kts | 157° |
| 2026-04-25 20:12 | 50.87108 | 7.12413 | 229 ft | 9 kts | 147° |
| 2026-04-25 20:13 | 50.87012 | 7.12543 | 231 ft | 13 kts | 136° |
| 2026-04-25 20:13 | 50.86934 | 7.12657 | 230 ft | 17 kts | 137° |
| 2026-04-25 20:13 | 50.86837 | 7.12797 | 231 ft | 20 kts | 137° |
| 2026-04-25 20:13 | 50.86769 | 7.12898 | 232 ft | 20 kts | 137° |
| 2026-04-25 20:14 | 50.86676 | 7.13032 | 232 ft | 15 kts | 137° |
| 2026-04-25 20:14 | 50.86603 | 7.13138 | 233 ft | 15 kts | 137° |
| 2026-04-25 20:14 | 50.86523 | 7.13253 | 234 ft | 15 kts | 137° |
| 2026-04-25 20:14 | 50.86520 | 7.13425 | 237 ft | 13 kts | 64° |
| 2026-04-25 20:15 | 50.86551 | 7.13527 | 233 ft | 16 kts | 64° |
| 2026-04-25 20:15 | 50.86597 | 7.13682 | 238 ft | 14 kts | 64° |
| 2026-04-25 20:15 | 50.86635 | 7.13805 | 238 ft | 11 kts | 62° |
| 2026-04-25 20:15 | 50.86663 | 7.13896 | 241 ft | 8 kts | 66° |
| 2026-04-25 20:16 | 50.86682 | 7.13964 | 243 ft | 6 kts | 64° |
| 2026-04-25 20:16 | 50.86698 | 7.14013 | 246 ft | 6 kts | 64° |
| 2026-04-25 20:16 | 50.86723 | 7.14114 | 246 ft | 11 kts | 85° |
| 2026-04-25 20:16 | 50.86681 | 7.14211 | 250 ft | 11 kts | 136° |
| 2026-04-25 20:17 | 50.86624 | 7.14294 | 252 ft | 13 kts | 137° |
| 2026-04-25 20:17 | 50.86551 | 7.14400 | 252 ft | 16 kts | 137° |
| 2026-04-25 20:17 | 50.86464 | 7.14527 | 255 ft | 17 kts | 137° |
| 2026-04-25 20:17 | 50.86376 | 7.14656 | 259 ft | 18 kts | 137° |
| 2026-04-25 20:18 | 50.86279 | 7.14795 | 263 ft | 19 kts | 137° |
| 2026-04-25 20:18 | 50.86179 | 7.14941 | 265 ft | 21 kts | 137° |
| 2026-04-25 20:18 | 50.86073 | 7.15096 | 270 ft | 21 kts | 137° |
| 2026-04-25 20:18 | 50.85962 | 7.15255 | 275 ft | 21 kts | 137° |
| 2026-04-25 20:19 | 50.85853 | 7.15414 | 280 ft | 21 kts | 137° |
| 2026-04-25 20:19 | 50.85748 | 7.15566 | 288 ft | 20 kts | 138° |
| 2026-04-25 20:19 | 50.85640 | 7.15721 | 291 ft | 21 kts | 137° |
| 2026-04-25 20:19 | 50.85527 | 7.15886 | 293 ft | 23 kts | 137° |
| 2026-04-25 20:20 | 50.85488 | 7.15993 | 297 ft | 9 kts | 77° |
| 2026-04-25 20:20 | 50.85529 | 7.16077 | 300 ft | 11 kts | 47° |
| 2026-04-25 20:20 | 50.85575 | 7.16157 | 302 ft | 0 kts | 47° |
| 2026-04-25 20:24 | 50.85613 | 7.16223 | 305 ft | 11 kts | 47° |
| 2026-04-25 20:24 | 50.85683 | 7.16305 | 303 ft | 16 kts | 1° |
| 2026-04-25 20:25 | 50.85803 | 7.16160 | 301 ft | 48 kts | 318° |
| 2026-04-25 20:25 | 50.86310 | 7.15428 | 269 ft | 147 kts | 318° |
| 2026-04-25 20:25 | 50.87148 | 7.14098 | 861 ft | 185 kts | 314° |
| 2026-04-25 20:25 | 50.88149 | 7.12650 | 2023 ft | 200 kts | 321° |
| 2026-04-25 20:26 | 50.89222 | 7.11195 | 3476 ft | 205 kts | 320° |
| 2026-04-25 20:26 | 50.90313 | 7.09705 | 4941 ft | 210 kts | 321° |
| 2026-04-25 20:26 | 50.91436 | 7.08185 | 6419 ft | 214 kts | 327° |
| 2026-04-25 20:26 | 50.92841 | 7.07574 | 7807 ft | 218 kts | 2° |
| 2026-04-25 20:27 | 50.94248 | 7.08502 | 9264 ft | 227 kts | 37° |
| 2026-04-25 20:27 | 50.95155 | 7.10591 | 10719 ft | 234 kts | 59° |
| 2026-04-25 20:27 | 50.95829 | 7.12975 | 12021 ft | 241 kts | 62° |
| 2026-04-25 20:27 | 50.96494 | 7.15468 | 13227 ft | 249 kts | 63° |
| 2026-04-25 20:28 | 50.97164 | 7.18040 | 14388 ft | 256 kts | 63° |
| 2026-04-25 20:28 | 50.97843 | 7.20672 | 15485 ft | 260 kts | 63° |
| 2026-04-25 20:28 | 50.98524 | 7.23317 | 16565 ft | 264 kts | 63° |
| 2026-04-25 20:28 | 50.99224 | 7.26036 | 17640 ft | 268 kts | 63° |
| 2026-04-25 20:29 | 50.99936 | 7.28800 | 18663 ft | 272 kts | 63° |
| 2026-04-25 20:29 | 51.00632 | 7.31531 | 18277 ft | 270 kts | 63° |
| 2026-04-25 20:29 | 51.01331 | 7.34270 | 17858 ft | 263 kts | 63° |
| 2026-04-25 20:29 | 51.01989 | 7.36981 | 17311 ft | 264 kts | 70° |
| 2026-04-25 20:30 | 51.01966 | 7.39856 | 17183 ft | 259 kts | 100° |
| 2026-04-25 20:30 | 51.01430 | 7.42608 | 17181 ft | 269 kts | 106° |
| 2026-04-25 20:30 | 51.00785 | 7.45559 | 17199 ft | 302 kts | 107° |
| 2026-04-25 20:30 | 51.00068 | 7.48889 | 17198 ft | 334 kts | 105° |
| 2026-04-25 20:31 | 50.99395 | 7.52471 | 17179 ft | 341 kts | 104° |
| 2026-04-25 20:31 | 50.98751 | 7.56106 | 17238 ft | 342 kts | 103° |
| 2026-04-25 20:31 | 50.98112 | 7.59764 | 17767 ft | 345 kts | 103° |
| 2026-04-25 20:31 | 50.97474 | 7.63413 | 19226 ft | 342 kts | 103° |
| 2026-04-25 20:32 | 50.96833 | 7.67066 | 20265 ft | 353 kts | 103° |
| 2026-04-25 20:32 | 50.96166 | 7.70870 | 21306 ft | 360 kts | 103° |
| 2026-04-25 20:32 | 50.95486 | 7.74742 | 22335 ft | 367 kts | 103° |
| 2026-04-25 20:32 | 50.94804 | 7.78634 | 23357 ft | 374 kts | 103° |
| 2026-04-25 20:33 | 50.94097 | 7.82666 | 24277 ft | 381 kts | 103° |
| 2026-04-25 20:33 | 50.93382 | 7.86751 | 25095 ft | 390 kts | 103° |
| 2026-04-25 20:33 | 50.92651 | 7.90949 | 25259 ft | 402 kts | 103° |
| 2026-04-25 20:33 | 50.92146 | 7.93853 | 25734 ft | 404 kts | 103° |
| 2026-04-25 20:34 | 50.91152 | 7.99561 | 26980 ft | 408 kts | 103° |
| 2026-04-25 20:34 | 50.90393 | 8.03931 | 27803 ft | 414 kts | 103° |
| 2026-04-25 20:34 | 50.89581 | 8.08352 | 28600 ft | 422 kts | 108° |
| 2026-04-25 20:34 | 50.88029 | 8.12344 | 29405 ft | 430 kts | 132° |
| 2026-04-25 20:35 | 50.85737 | 8.15402 | 30248 ft | 433 kts | 146° |
| 2026-04-25 20:35 | 50.83222 | 8.17982 | 30934 ft | 437 kts | 149° |
| 2026-04-25 20:35 | 50.80632 | 8.20565 | 31628 ft | 441 kts | 148° |
| 2026-04-25 20:35 | 50.78152 | 8.23477 | 32298 ft | 445 kts | 141° |
| 2026-04-25 20:36 | 50.75836 | 8.26757 | 32935 ft | 449 kts | 137° |
| 2026-04-25 20:36 | 50.73550 | 8.30202 | 33143 ft | 461 kts | 137° |
| 2026-04-25 20:36 | 50.68630 | 8.36733 | 33155 ft | 473 kts | 142° |
| 2026-04-25 20:37 | 50.66045 | 8.40097 | 33167 ft | 490 kts | 140° |
| 2026-04-25 20:37 | 50.63468 | 8.43656 | 33157 ft | 505 kts | 139° |
| 2026-04-25 20:37 | 50.58085 | 8.50898 | 33164 ft | 507 kts | 141° |
| 2026-04-25 20:38 | 50.52700 | 8.58025 | 33139 ft | 505 kts | 140° |
| 2026-04-25 20:38 | 50.47344 | 8.65191 | 33130 ft | 506 kts | 140° |
| 2026-04-25 20:39 | 50.41950 | 8.72301 | 33136 ft | 507 kts | 140° |
| 2026-04-25 20:39 | 50.37470 | 8.78247 | 33236 ft | 509 kts | 140° |
| 2026-04-25 20:40 | 50.33886 | 8.82961 | 34347 ft | 502 kts | 141° |
| 2026-04-25 20:40 | 50.31214 | 8.86473 | 34950 ft | 502 kts | 141° |
| 2026-04-25 20:40 | 50.28530 | 8.90005 | 35128 ft | 507 kts | 141° |
| 2026-04-25 20:40 | 50.25831 | 8.93548 | 35132 ft | 502 kts | 141° |
| 2026-04-25 20:41 | 50.20490 | 9.00536 | 35449 ft | 501 kts | 141° |
| 2026-04-25 20:41 | 50.17817 | 9.04027 | 36064 ft | 499 kts | 141° |
| 2026-04-25 20:41 | 50.15151 | 9.07506 | 36549 ft | 499 kts | 141° |
| 2026-04-25 20:42 | 50.12516 | 9.10935 | 37010 ft | 499 kts | 141° |
| 2026-04-25 20:42 | 50.09902 | 9.14513 | 37449 ft | 500 kts | 136° |
| 2026-04-25 20:42 | 50.07664 | 9.18668 | 37827 ft | 502 kts | 125° |
| 2026-04-25 20:42 | 50.05859 | 9.23348 | 38152 ft | 502 kts | 116° |
| 2026-04-25 20:43 | 50.04550 | 9.28298 | 38541 ft | 500 kts | 107° |
| 2026-04-25 20:43 | 50.03723 | 9.33540 | 38884 ft | 497 kts | 97° |
| 2026-04-25 20:43 | 50.03173 | 9.38859 | 39172 ft | 497 kts | 97° |
| 2026-04-25 20:43 | 50.02622 | 9.44159 | 39452 ft | 496 kts | 97° |
| 2026-04-25 20:44 | 50.02054 | 9.49456 | 39717 ft | 496 kts | 97° |
| 2026-04-25 20:44 | 50.01484 | 9.54748 | 39985 ft | 496 kts | 97° |
| 2026-04-25 20:44 | 50.00920 | 9.60029 | 40238 ft | 496 kts | 97° |
| 2026-04-25 20:44 | 50.00356 | 9.65315 | 40511 ft | 495 kts | 97° |
| 2026-04-25 20:45 | 49.99780 | 9.70637 | 40749 ft | 495 kts | 97° |
| 2026-04-25 20:45 | 49.99212 | 9.75857 | 40982 ft | 495 kts | 97° |
| 2026-04-25 20:45 | 49.98636 | 9.81131 | 41222 ft | 495 kts | 97° |
| 2026-04-25 20:45 | 49.98057 | 9.86426 | 41452 ft | 495 kts | 97° |
| 2026-04-25 20:46 | 49.97477 | 9.91704 | 41660 ft | 495 kts | 97° |
| 2026-04-25 20:46 | 49.96902 | 9.96902 | 41881 ft | 495 kts | 97° |
| 2026-04-25 20:46 | 49.96318 | 10.02167 | 42103 ft | 495 kts | 97° |
| 2026-04-25 20:46 | 49.95731 | 10.07429 | 42317 ft | 495 kts | 97° |
| 2026-04-25 20:47 | 49.95142 | 10.12703 | 42483 ft | 496 kts | 97° |
| 2026-04-25 20:47 | 49.94547 | 10.17999 | 42689 ft | 496 kts | 97° |
| 2026-04-25 20:47 | 49.93950 | 10.23285 | 42894 ft | 495 kts | 97° |
| 2026-04-25 20:47 | 49.93358 | 10.28493 | 43087 ft | 495 kts | 97° |
| 2026-04-25 20:48 | 49.92759 | 10.33764 | 43274 ft | 495 kts | 97° |
| 2026-04-25 20:48 | 49.92093 | 10.39010 | 43449 ft | 497 kts | 103° |
| 2026-04-25 20:48 | 49.91009 | 10.44108 | 43632 ft | 498 kts | 108° |
| 2026-04-25 20:48 | 49.89847 | 10.49182 | 43824 ft | 498 kts | 108° |
| 2026-04-25 20:49 | 49.88704 | 10.54260 | 43974 ft | 498 kts | 107° |
| 2026-04-25 20:49 | 49.87579 | 10.59264 | 44141 ft | 498 kts | 108° |
| 2026-04-25 20:49 | 49.86424 | 10.64335 | 44310 ft | 498 kts | 108° |
| 2026-04-25 20:49 | 49.85264 | 10.69388 | 44475 ft | 498 kts | 108° |
| 2026-04-25 20:50 | 49.84108 | 10.74445 | 44640 ft | 498 kts | 108° |
| 2026-04-25 20:50 | 49.82955 | 10.79499 | 44772 ft | 498 kts | 108° |
| 2026-04-25 20:50 | 49.81795 | 10.84560 | 44897 ft | 498 kts | 108° |
| 2026-04-25 20:50 | 49.80628 | 10.89617 | 45030 ft | 498 kts | 108° |
| 2026-04-25 20:51 | 49.78301 | 10.99692 | 45103 ft | 502 kts | 108° |
| 2026-04-25 20:51 | 49.75942 | 11.09857 | 45102 ft | 500 kts | 108° |
| 2026-04-25 20:52 | 49.73983 | 11.18265 | 45096 ft | 498 kts | 108° |
| 2026-04-25 20:52 | 49.71239 | 11.29980 | 45088 ft | 495 kts | 108° |
| 2026-04-25 20:53 | 49.68877 | 11.40021 | 45100 ft | 499 kts | 108° |
| 2026-04-25 20:53 | 49.66505 | 11.50048 | 45089 ft | 502 kts | 108° |
| 2026-04-25 20:54 | 49.64095 | 11.60194 | 45081 ft | 500 kts | 108° |
| 2026-04-25 20:54 | 49.61696 | 11.70244 | 45069 ft | 497 kts | 109° |
| 2026-04-25 20:55 | 49.59317 | 11.80170 | 45068 ft | 498 kts | 109° |
| 2026-04-25 20:55 | 49.56890 | 11.90245 | 45068 ft | 501 kts | 109° |
| 2026-04-25 20:56 | 49.54458 | 12.00299 | 45065 ft | 499 kts | 109° |
| 2026-04-25 20:56 | 49.52041 | 12.10240 | 45065 ft | 498 kts | 109° |
| 2026-04-25 20:57 | 49.49610 | 12.20196 | 45075 ft | 496 kts | 109° |
| 2026-04-25 20:57 | 49.47172 | 12.30139 | 45077 ft | 497 kts | 109° |
| 2026-04-25 20:58 | 49.44714 | 12.40118 | 45080 ft | 499 kts | 109° |
| 2026-04-25 20:58 | 49.42246 | 12.50089 | 45077 ft | 500 kts | 110° |
| 2026-04-25 20:59 | 49.39682 | 12.59985 | 45076 ft | 502 kts | 113° |
| 2026-04-25 20:59 | 49.36763 | 12.69744 | 45076 ft | 503 kts | 114° |
| 2026-04-25 21:00 | 49.34864 | 12.76302 | 45074 ft | 501 kts | 112° |
| 2026-04-25 21:01 | 49.29647 | 12.94024 | 45062 ft | 497 kts | 113° |
| 2026-04-25 21:01 | 49.26798 | 13.03712 | 45064 ft | 499 kts | 114° |
| 2026-04-25 21:02 | 49.23907 | 13.13413 | 45068 ft | 501 kts | 114° |
| 2026-04-25 21:02 | 49.21024 | 13.23100 | 45069 ft | 503 kts | 114° |
| 2026-04-25 21:02 | 49.19564 | 13.27979 | 44486 ft | 504 kts | 114° |
| 2026-04-25 21:03 | 49.18579 | 13.31259 | 44037 ft | 498 kts | 114° |
| 2026-04-25 21:03 | 49.17145 | 13.36032 | 43391 ft | 490 kts | 114° |
| 2026-04-25 21:03 | 49.15751 | 13.40675 | 42765 ft | 482 kts | 114° |
| 2026-04-25 21:03 | 49.14364 | 13.45285 | 42134 ft | 475 kts | 114° |
| 2026-04-25 21:04 | 49.12985 | 13.49852 | 41539 ft | 468 kts | 113° |
| 2026-04-25 21:04 | 49.11628 | 13.54338 | 40793 ft | 465 kts | 113° |
| 2026-04-25 21:04 | 49.10273 | 13.58812 | 40160 ft | 461 kts | 113° |
| 2026-04-25 21:04 | 49.08932 | 13.63233 | 39561 ft | 456 kts | 113° |
| 2026-04-25 21:05 | 49.07604 | 13.67601 | 38961 ft | 451 kts | 113° |
| 2026-04-25 21:05 | 49.06303 | 13.71874 | 38315 ft | 447 kts | 113° |
| 2026-04-25 21:05 | 49.04997 | 13.76153 | 37661 ft | 441 kts | 113° |
| 2026-04-25 21:05 | 49.03707 | 13.80377 | 36876 ft | 439 kts | 113° |
| 2026-04-25 21:06 | 49.02402 | 13.84646 | 35815 ft | 447 kts | 113° |
| 2026-04-25 21:06 | 49.01068 | 13.89000 | 34793 ft | 457 kts | 113° |
| 2026-04-25 21:06 | 48.99681 | 13.93517 | 33416 ft | 483 kts | 113° |
| 2026-04-25 21:06 | 48.98726 | 13.96621 | 32614 ft | 490 kts | 113° |
| 2026-04-25 21:07 | 48.96787 | 14.02904 | 30721 ft | 496 kts | 113° |
| 2026-04-25 21:07 | 48.95330 | 14.07638 | 29208 ft | 492 kts | 113° |
| 2026-04-25 21:07 | 48.93880 | 14.12334 | 27704 ft | 486 kts | 114° |
| 2026-04-25 21:07 | 48.92441 | 14.16965 | 26241 ft | 480 kts | 114° |
| 2026-04-25 21:08 | 48.91049 | 14.21438 | 24848 ft | 475 kts | 114° |
| 2026-04-25 21:08 | 48.89616 | 14.26043 | 23425 ft | 469 kts | 114° |
| 2026-04-25 21:08 | 48.88228 | 14.30502 | 21852 ft | 463 kts | 114° |
| 2026-04-25 21:08 | 48.86876 | 14.34826 | 20344 ft | 456 kts | 114° |
| 2026-04-25 21:09 | 48.84179 | 14.43435 | 17885 ft | 436 kts | 115° |
| 2026-04-25 21:09 | 48.82894 | 14.47529 | 17525 ft | 427 kts | 115° |
| 2026-04-25 21:09 | 48.81590 | 14.51677 | 17180 ft | 439 kts | 115° |
| 2026-04-25 21:10 | 48.80285 | 14.55820 | 17049 ft | 430 kts | 115° |
| 2026-04-25 21:10 | 48.78986 | 14.59932 | 17051 ft | 442 kts | 115° |
| 2026-04-25 21:10 | 48.77666 | 14.64110 | 17033 ft | 438 kts | 115° |
| 2026-04-25 21:10 | 48.76343 | 14.68292 | 17041 ft | 439 kts | 115° |
| 2026-04-25 21:11 | 48.75016 | 14.72472 | 17042 ft | 440 kts | 115° |
| 2026-04-25 21:11 | 48.73687 | 14.76654 | 17052 ft | 438 kts | 115° |
| 2026-04-25 21:11 | 48.72381 | 14.80761 | 17043 ft | 438 kts | 115° |
| 2026-04-25 21:11 | 48.71053 | 14.84926 | 17039 ft | 440 kts | 115° |
| 2026-04-25 21:12 | 48.69717 | 14.89109 | 17038 ft | 440 kts | 115° |
| 2026-04-25 21:12 | 48.68385 | 14.93277 | 17039 ft | 439 kts | 115° |
| 2026-04-25 21:12 | 48.67053 | 14.97435 | 17032 ft | 439 kts | 115° |
| 2026-04-25 21:12 | 48.66168 | 15.00195 | 17032 ft | 438 kts | 115° |
| 2026-04-25 21:13 | 48.64389 | 15.05732 | 17035 ft | 437 kts | 115° |
| 2026-04-25 21:13 | 48.63071 | 15.09826 | 17027 ft | 437 kts | 115° |
| 2026-04-25 21:13 | 48.61741 | 15.13951 | 17035 ft | 437 kts | 115° |
| 2026-04-25 21:13 | 48.60403 | 15.18094 | 17032 ft | 438 kts | 115° |
| 2026-04-25 21:14 | 48.59060 | 15.22245 | 17036 ft | 440 kts | 116° |
| 2026-04-25 21:14 | 48.57713 | 15.26403 | 17034 ft | 439 kts | 116° |
| 2026-04-25 21:14 | 48.56374 | 15.30529 | 17031 ft | 438 kts | 116° |
| 2026-04-25 21:14 | 48.55061 | 15.34689 | 17016 ft | 437 kts | 111° |
| 2026-04-25 21:15 | 48.54288 | 15.39003 | 16506 ft | 421 kts | 100° |
| 2026-04-25 21:15 | 48.53942 | 15.43415 | 14789 ft | 424 kts | 91° |
| 2026-04-25 21:15 | 48.53835 | 15.47800 | 13781 ft | 410 kts | 90° |
| 2026-04-25 21:15 | 48.53687 | 15.52031 | 13079 ft | 402 kts | 94° |
| 2026-04-25 21:16 | 48.53274 | 15.56221 | 13024 ft | 409 kts | 99° |
| 2026-04-25 21:16 | 48.52762 | 15.60485 | 13016 ft | 411 kts | 98° |
| 2026-04-25 21:16 | 48.52366 | 15.64757 | 13009 ft | 413 kts | 95° |
| 2026-04-25 21:16 | 48.52043 | 15.68956 | 12475 ft | 400 kts | 95° |
| 2026-04-25 21:17 | 48.51666 | 15.73065 | 12011 ft | 387 kts | 97° |
| 2026-04-25 21:17 | 48.51249 | 15.77201 | 12007 ft | 409 kts | 97° |
| 2026-04-25 21:17 | 48.50852 | 15.81390 | 12005 ft | 396 kts | 96° |
| 2026-04-25 21:17 | 48.50482 | 15.85486 | 12002 ft | 388 kts | 96° |
| 2026-04-25 21:18 | 48.50116 | 15.89392 | 11995 ft | 364 kts | 97° |
| 2026-04-25 21:18 | 48.49765 | 15.93027 | 11982 ft | 347 kts | 97° |
| 2026-04-25 21:18 | 48.49421 | 15.96629 | 11983 ft | 348 kts | 96° |
| 2026-04-25 21:18 | 48.49079 | 16.00254 | 11985 ft | 350 kts | 96° |
| 2026-04-25 21:19 | 48.48732 | 16.03894 | 11980 ft | 351 kts | 97° |
| 2026-04-25 21:19 | 48.48345 | 16.07534 | 11981 ft | 352 kts | 101° |
| 2026-04-25 21:19 | 48.47519 | 16.11009 | 11982 ft | 352 kts | 116° |
| 2026-04-25 21:19 | 48.46257 | 16.14115 | 11981 ft | 351 kts | 126° |
| 2026-04-25 21:20 | 48.44861 | 16.17142 | 11994 ft | 348 kts | 125° |
| 2026-04-25 21:20 | 48.43962 | 16.19107 | 11992 ft | 338 kts | 125° |
| 2026-04-25 21:20 | 48.42227 | 16.22921 | 11982 ft | 324 kts | 125° |
| 2026-04-25 21:20 | 48.40949 | 16.25729 | 11974 ft | 327 kts | 125° |
| 2026-04-25 21:21 | 48.39665 | 16.28524 | 11975 ft | 329 kts | 125° |
| 2026-04-25 21:21 | 48.38358 | 16.31362 | 11978 ft | 330 kts | 125° |
| 2026-04-25 21:21 | 48.37070 | 16.34173 | 11574 ft | 324 kts | 125° |
| 2026-04-25 21:21 | 48.35785 | 16.36977 | 10888 ft | 324 kts | 126° |
| 2026-04-25 21:22 | 48.34508 | 16.39755 | 10312 ft | 320 kts | 125° |
| 2026-04-25 21:22 | 48.33250 | 16.42487 | 9740 ft | 316 kts | 125° |
| 2026-04-25 21:22 | 48.32020 | 16.45157 | 9102 ft | 313 kts | 125° |
| 2026-04-25 21:22 | 48.30790 | 16.47829 | 8510 ft | 309 kts | 125° |
| 2026-04-25 21:23 | 48.29484 | 16.50369 | 7906 ft | 305 kts | 135° |
| 2026-04-25 21:23 | 48.27857 | 16.52375 | 7315 ft | 301 kts | 145° |
| 2026-04-25 21:23 | 48.26188 | 16.54240 | 6976 ft | 291 kts | 145° |
| 2026-04-25 21:23 | 48.24637 | 16.56003 | 6979 ft | 270 kts | 145° |
| 2026-04-25 21:24 | 48.23170 | 16.57663 | 6740 ft | 262 kts | 145° |
| 2026-04-25 21:24 | 48.21704 | 16.59311 | 6383 ft | 262 kts | 145° |
| 2026-04-25 21:24 | 48.20249 | 16.60949 | 6033 ft | 261 kts | 145° |
| 2026-04-25 21:24 | 48.18854 | 16.62622 | 5991 ft | 254 kts | 136° |
| 2026-04-25 21:25 | 48.17814 | 16.64749 | 5984 ft | 260 kts | 118° |
| 2026-04-25 21:25 | 48.17025 | 16.67155 | 5762 ft | 257 kts | 115° |
| 2026-04-25 21:25 | 48.16233 | 16.69569 | 5366 ft | 258 kts | 115° |
| 2026-04-25 21:25 | 48.15434 | 16.71981 | 5051 ft | 256 kts | 115° |
| 2026-04-25 21:26 | 48.14647 | 16.74359 | 4712 ft | 255 kts | 114° |
| 2026-04-25 21:26 | 48.13859 | 16.76744 | 4347 ft | 255 kts | 114° |
| 2026-04-25 21:26 | 48.13080 | 16.79094 | 4026 ft | 254 kts | 114° |
| 2026-04-25 21:26 | 48.12294 | 16.81465 | 3716 ft | 252 kts | 114° |
| 2026-04-25 21:27 | 48.11512 | 16.83821 | 3399 ft | 251 kts | 114° |
| 2026-04-25 21:27 | 48.10684 | 16.86097 | 3049 ft | 251 kts | 127° |
| 2026-04-25 21:27 | 48.09298 | 16.87541 | 2972 ft | 239 kts | 165° |
| 2026-04-25 21:27 | 48.07680 | 16.87574 | 2926 ft | 229 kts | 199° |
| 2026-04-25 21:28 | 48.06377 | 16.86423 | 2682 ft | 214 kts | 236° |
| 2026-04-25 21:28 | 48.05811 | 16.84519 | 2680 ft | 196 kts | 263° |
| 2026-04-25 21:28 | 48.05538 | 16.82514 | 2691 ft | 198 kts | 264° |
| 2026-04-25 21:28 | 48.05291 | 16.80504 | 2729 ft | 188 kts | 265° |
| 2026-04-25 21:29 | 48.05060 | 16.78537 | 2702 ft | 197 kts | 265° |
| 2026-04-25 21:29 | 48.04831 | 16.76513 | 2705 ft | 197 kts | 265° |
| 2026-04-25 21:29 | 48.04669 | 16.74531 | 2676 ft | 182 kts | 278° |
| 2026-04-25 21:29 | 48.05070 | 16.73092 | 2671 ft | 144 kts | 312° |
| 2026-04-25 21:30 | 48.05970 | 16.72490 | 2678 ft | 147 kts | 348° |
| 2026-04-25 21:30 | 48.06970 | 16.72437 | 2677 ft | 142 kts | 339° |
| 2026-04-25 21:30 | 48.07748 | 16.71604 | 2678 ft | 139 kts | 307° |
| 2026-04-25 21:30 | 48.08004 | 16.70718 | 2686 ft | 146 kts | 288° |
| 2026-04-25 21:31 | 48.08081 | 16.68710 | 2610 ft | 143 kts | 280° |
| 2026-04-25 21:31 | 48.08101 | 16.67212 | 2350 ft | 144 kts | 277° |
| 2026-04-25 21:31 | 48.08138 | 16.65748 | 2109 ft | 137 kts | 283° |
| 2026-04-25 21:31 | 48.08387 | 16.64358 | 1897 ft | 135 kts | 291° |
| 2026-04-25 21:32 | 48.08815 | 16.63156 | 1666 ft | 132 kts | 303° |
| 2026-04-25 21:32 | 48.09417 | 16.61976 | 1254 ft | 149 kts | 304° |
| 2026-04-25 21:32 | 48.09888 | 16.60657 | 1079 ft | 137 kts | 292° |
| 2026-04-25 21:32 | 48.10297 | 16.59349 | 942 ft | 135 kts | 296° |
| 2026-04-25 21:33 | 48.10704 | 16.58156 | 749 ft | 127 kts | 295° |
| 2026-04-25 21:33 | 48.11092 | 16.56991 | 636 ft | 115 kts | 295° |
| 2026-04-25 21:33 | 48.11363 | 16.56143 | 615 ft | 47 kts | 297° |
| 2026-04-25 21:33 | 48.11485 | 16.55777 | 618 ft | 38 kts | 296° |
| 2026-04-25 21:34 | 48.11614 | 16.55426 | 616 ft | 36 kts | 307° |
| 2026-04-25 21:34 | 48.11774 | 16.55181 | 603 ft | 29 kts | 318° |
| 2026-04-25 21:34 | 48.11853 | 16.55139 | 602 ft | 0 kts | 7° |
| 2026-04-25 21:36 | 48.11856 | 16.55140 | 602 ft | 3 kts | 8° |
| 2026-04-25 21:36 | 48.11904 | 16.55129 | 602 ft | 9 kts | 323° |
| 2026-04-25 21:36 | 48.11940 | 16.55031 | 602 ft | 12 kts | 295° |
| 2026-04-25 21:37 | 48.11981 | 16.54908 | 603 ft | 15 kts | 297° |
| 2026-04-25 21:37 | 48.12015 | 16.54806 | 601 ft | 18 kts | 295° |
| 2026-04-25 21:37 | 48.12095 | 16.54551 | 599 ft | 23 kts | 295° |
| 2026-04-25 21:37 | 48.12170 | 16.54319 | 595 ft | 26 kts | 298° |
| 2026-04-25 21:38 | 48.12257 | 16.54061 | 592 ft | 29 kts | 295° |
| 2026-04-25 21:38 | 48.12345 | 16.53787 | 590 ft | 31 kts | 297° |
| 2026-04-25 21:38 | 48.12410 | 16.53627 | 592 ft | 9 kts | 339° |
| 2026-04-25 21:38 | 48.12482 | 16.53629 | 591 ft | 13 kts | 345° |
| 2026-04-25 21:39 | 48.12577 | 16.53676 | 587 ft | 18 kts | 24° |
| 2026-04-25 21:39 | 48.12631 | 16.53681 | 585 ft | 4 kts | 299° |
| 2026-04-25 21:39 | 48.12667 | 16.53656 | 583 ft | 4 kts | 26° |
| 2026-04-25 21:39 | 48.12681 | 16.53656 | 583 ft | 1 kts | 296° |
| 2026-04-25 21:40 | 48.12691 | 16.53625 | 583 ft | 5 kts | 294° |
| 2026-04-25 21:40 | 48.12696 | 16.53608 | 583 ft | 0 kts | 294° |